KJAS

Jasper County-Bell Field Airport

Jasper, Texas, USA
METAR KJAS 230255Z AUTO 00000KT 10SM SCT050 24/22 A3001 RMK AO2 T02400223
Observed Flight Rules
May-23 @ 02:55 UTC (7 minutes ago) Visual Flight Rules
Visibility Clouds
10 miles
  • Scattered at 5,000' AGL
Temperatures Readings
Current 24°C / 75°F
Dewpoint 22°C / 72°F
Humidity 89%
Altimeter 30.01" Hg
Pressure 1016 hPa
Elevation 65
METAR KJAS 230255Z AUTO 00000KT 10SM SCT050 24/22 A3001 RMK AO2 T02400223
Observed Flight Rules
May-23 @ 02:55 UTC
(7 minutes ago)
VFR
Clouds
  • Scattered at 5,000' AGL
Temperature Dewpoint
24°C / 75°F 22°C / 72°F
Humidity Altimeter Pressure
89% 30.01" Hg 1016 hPa